sensor_id;sensor_type;location;lat;lon;timestamp;P1;durP1;ratioP1;P2;durP2;ratioP2
18929;SDS011;43305;52.186;5.598;2023-11-19T00:00:38;24.25;;;8.60;;
18929;SDS011;43305;52.186;5.598;2023-11-19T00:03:04;23.38;;;8.52;;
18929;SDS011;43305;52.186;5.598;2023-11-19T00:05:31;25.05;;;7.57;;
18929;SDS011;43305;52.186;5.598;2023-11-19T00:07:58;26.20;;;8.30;;
18929;SDS011;43305;52.186;5.598;2023-11-19T00:10:25;29.50;;;8.02;;
18929;SDS011;43305;52.186;5.598;2023-11-19T00:12:52;24.08;;;7.93;;
18929;SDS011;43305;52.186;5.598;2023-11-19T00:15:20;24.52;;;7.93;;
18929;SDS011;43305;52.186;5.598;2023-11-19T00:17:49;22.85;;;7.68;;
18929;SDS011;43305;52.186;5.598;2023-11-19T00:20:17;20.77;;;7.80;;
18929;SDS011;43305;52.186;5.598;2023-11-19T00:22:47;25.05;;;7.90;;
18929;SDS011;43305;52.186;5.598;2023-11-19T00:25:16;23.50;;;6.82;;
18929;SDS011;43305;52.186;5.598;2023-11-19T00:27:43;21.88;;;6.70;;
18929;SDS011;43305;52.186;5.598;2023-11-19T00:30:10;20.98;;;6.43;;
18929;SDS011;43305;52.186;5.598;2023-11-19T00:32:39;23.15;;;6.80;;
18929;SDS011;43305;52.186;5.598;2023-11-19T00:35:07;22.45;;;6.50;;
18929;SDS011;43305;52.186;5.598;2023-11-19T00:37:35;21.80;;;6.90;;
18929;SDS011;43305;52.186;5.598;2023-11-19T00:40:02;24.05;;;6.07;;
18929;SDS011;43305;52.186;5.598;2023-11-19T00:42:30;23.65;;;6.70;;
18929;SDS011;43305;52.186;5.598;2023-11-19T00:44:57;18.17;;;5.78;;
18929;SDS011;43305;52.186;5.598;2023-11-19T00:47:24;28.60;;;6.20;;
18929;SDS011;43305;52.186;5.598;2023-11-19T00:49:52;24.42;;;6.28;;
18929;SDS011;43305;52.186;5.598;2023-11-19T00:52:22;21.50;;;6.25;;
18929;SDS011;43305;52.186;5.598;2023-11-19T00:54:49;21.15;;;5.80;;
18929;SDS011;43305;52.186;5.598;2023-11-19T00:57:16;36.05;;;6.75;;
18929;SDS011;43305;52.186;5.598;2023-11-19T00:59:43;24.55;;;6.10;;
18929;SDS011;43305;52.186;5.598;2023-11-19T01:02:10;28.55;;;6.05;;
18929;SDS011;43305;52.186;5.598;2023-11-19T01:04:39;22.63;;;5.75;;
18929;SDS011;43305;52.186;5.598;2023-11-19T01:07:07;23.85;;;5.07;;
18929;SDS011;43305;52.186;5.598;2023-11-19T01:09:37;32.15;;;5.40;;
18929;SDS011;43305;52.186;5.598;2023-11-19T01:12:05;29.77;;;5.45;;
18929;SDS011;43305;52.186;5.598;2023-11-19T01:14:32;27.45;;;5.43;;
18929;SDS011;43305;52.186;5.598;2023-11-19T01:16:59;37.20;;;5.38;;
18929;SDS011;43305;52.186;5.598;2023-11-19T01:19:27;21.75;;;5.13;;
18929;SDS011;43305;52.186;5.598;2023-11-19T01:21:54;28.35;;;5.05;;
18929;SDS011;43305;52.186;5.598;2023-11-19T01:24:22;20.67;;;4.63;;
18929;SDS011;43305;52.186;5.598;2023-11-19T01:26:50;32.38;;;5.05;;
18929;SDS011;43305;52.186;5.598;2023-11-19T01:29:18;31.25;;;5.70;;
18929;SDS011;43305;52.186;5.598;2023-11-19T01:31:48;35.78;;;4.60;;
18929;SDS011;43305;52.186;5.598;2023-11-19T01:34:16;31.38;;;4.78;;
18929;SDS011;43305;52.186;5.598;2023-11-19T01:36:43;42.10;;;5.68;;
18929;SDS011;43305;52.186;5.598;2023-11-19T01:39:11;28.95;;;4.45;;
18929;SDS011;43305;52.186;5.598;2023-11-19T01:41:42;33.60;;;5.35;;
18929;SDS011;43305;52.186;5.598;2023-11-19T01:44:09;38.53;;;5.80;;
18929;SDS011;43305;52.186;5.598;2023-11-19T01:46:37;36.17;;;5.78;;
18929;SDS011;43305;52.186;5.598;2023-11-19T01:49:06;31.00;;;5.00;;
18929;SDS011;43305;52.186;5.598;2023-11-19T01:51:34;39.58;;;5.57;;
18929;SDS011;43305;52.186;5.598;2023-11-19T01:54:02;33.20;;;4.90;;
18929;SDS011;43305;52.186;5.598;2023-11-19T01:56:32;29.60;;;4.88;;
18929;SDS011;43305;52.186;5.598;2023-11-19T01:59:01;34.80;;;4.97;;
18929;SDS011;43305;52.186;5.598;2023-11-19T02:01:32;35.05;;;4.97;;
18929;SDS011;43305;52.186;5.598;2023-11-19T02:04:04;40.08;;;5.15;;
18929;SDS011;43305;52.186;5.598;2023-11-19T02:06:32;36.15;;;4.85;;
18929;SDS011;43305;52.186;5.598;2023-11-19T02:09:00;40.35;;;4.85;;
18929;SDS011;43305;52.186;5.598;2023-11-19T02:11:32;39.17;;;5.57;;
18929;SDS011;43305;52.186;5.598;2023-11-19T02:13:59;38.88;;;4.85;;
18929;SDS011;43305;52.186;5.598;2023-11-19T02:16:29;34.55;;;4.75;;
18929;SDS011;43305;52.186;5.598;2023-11-19T02:18:56;43.50;;;4.85;;
18929;SDS011;43305;52.186;5.598;2023-11-19T02:21:22;42.60;;;5.50;;
18929;SDS011;43305;52.186;5.598;2023-11-19T02:23:49;32.92;;;5.18;;
18929;SDS011;43305;52.186;5.598;2023-11-19T02:26:18;46.08;;;5.85;;
18929;SDS011;43305;52.186;5.598;2023-11-19T02:28:55;49.50;;;5.32;;
18929;SDS011;43305;52.186;5.598;2023-11-19T02:31:21;48.10;;;5.05;;
18929;SDS011;43305;52.186;5.598;2023-11-19T02:33:49;37.08;;;5.95;;
18929;SDS011;43305;52.186;5.598;2023-11-19T02:36:17;38.58;;;5.47;;
18929;SDS011;43305;52.186;5.598;2023-11-19T02:38:43;40.53;;;5.70;;
18929;SDS011;43305;52.186;5.598;2023-11-19T02:41:10;38.25;;;4.85;;
18929;SDS011;43305;52.186;5.598;2023-11-19T02:43:38;47.15;;;5.72;;
18929;SDS011;43305;52.186;5.598;2023-11-19T02:46:06;45.97;;;5.72;;
18929;SDS011;43305;52.186;5.598;2023-11-19T02:48:33;41.92;;;6.03;;
18929;SDS011;43305;52.186;5.598;2023-11-19T02:51:01;44.97;;;5.30;;
18929;SDS011;43305;52.186;5.598;2023-11-19T02:53:29;41.30;;;4.97;;
18929;SDS011;43305;52.186;5.598;2023-11-19T02:55:56;42.50;;;5.78;;
18929;SDS011;43305;52.186;5.598;2023-11-19T02:58:27;47.45;;;5.88;;
18929;SDS011;43305;52.186;5.598;2023-11-19T03:00:54;49.00;;;6.57;;
18929;SDS011;43305;52.186;5.598;2023-11-19T03:03:26;46.25;;;6.10;;
18929;SDS011;43305;52.186;5.598;2023-11-19T03:06:03;42.38;;;5.85;;
18929;SDS011;43305;52.186;5.598;2023-11-19T03:08:31;47.75;;;6.07;;
18929;SDS011;43305;52.186;5.598;2023-11-19T03:10:58;54.85;;;6.03;;
18929;SDS011;43305;52.186;5.598;2023-11-19T03:13:25;44.80;;;6.47;;
18929;SDS011;43305;52.186;5.598;2023-11-19T03:15:52;53.50;;;6.28;;
18929;SDS011;43305;52.186;5.598;2023-11-19T03:18:20;52.85;;;6.68;;
18929;SDS011;43305;52.186;5.598;2023-11-19T03:20:48;47.35;;;6.13;;
18929;SDS011;43305;52.186;5.598;2023-11-19T03:23:17;54.90;;;6.22;;
18929;SDS011;43305;52.186;5.598;2023-11-19T03:25:44;48.20;;;6.18;;
18929;SDS011;43305;52.186;5.598;2023-11-19T03:28:11;41.30;;;5.47;;
18929;SDS011;43305;52.186;5.598;2023-11-19T03:30:38;51.03;;;6.70;;
18929;SDS011;43305;52.186;5.598;2023-11-19T03:33:05;46.83;;;6.35;;
18929;SDS011;43305;52.186;5.598;2023-11-19T03:35:32;50.95;;;6.90;;
18929;SDS011;43305;52.186;5.598;2023-11-19T03:38:00;53.58;;;6.60;;
18929;SDS011;43305;52.186;5.598;2023-11-19T03:40:27;51.92;;;6.63;;
18929;SDS011;43305;52.186;5.598;2023-11-19T03:42:55;47.97;;;6.47;;
18929;SDS011;43305;52.186;5.598;2023-11-19T03:45:22;49.53;;;6.50;;
18929;SDS011;43305;52.186;5.598;2023-11-19T03:47:50;39.90;;;5.63;;
18929;SDS011;43305;52.186;5.598;2023-11-19T03:50:17;51.88;;;7.07;;
18929;SDS011;43305;52.186;5.598;2023-11-19T03:52:45;40.83;;;5.90;;
18929;SDS011;43305;52.186;5.598;2023-11-19T03:55:13;49.90;;;6.55;;
18929;SDS011;43305;52.186;5.598;2023-11-19T03:57:40;49.92;;;6.10;;
18929;SDS011;43305;52.186;5.598;2023-11-19T04:00:07;50.83;;;6.80;;
18929;SDS011;43305;52.186;5.598;2023-11-19T04:02:35;48.13;;;5.78;;
18929;SDS011;43305;52.186;5.598;2023-11-19T04:05:02;52.00;;;6.88;;
18929;SDS011;43305;52.186;5.598;2023-11-19T04:07:32;40.13;;;5.57;;
18929;SDS011;43305;52.186;5.598;2023-11-19T04:09:59;45.13;;;5.55;;
18929;SDS011;43305;52.186;5.598;2023-11-19T04:12:28;56.13;;;6.35;;
18929;SDS011;43305;52.186;5.598;2023-11-19T04:14:55;47.17;;;5.70;;
18929;SDS011;43305;52.186;5.598;2023-11-19T04:17:22;48.13;;;5.85;;
18929;SDS011;43305;52.186;5.598;2023-11-19T04:19:52;48.28;;;6.57;;
18929;SDS011;43305;52.186;5.598;2023-11-19T04:22:19;48.83;;;6.55;;
18929;SDS011;43305;52.186;5.598;2023-11-19T04:24:49;44.45;;;6.57;;
18929;SDS011;43305;52.186;5.598;2023-11-19T04:27:18;53.63;;;5.97;;
18929;SDS011;43305;52.186;5.598;2023-11-19T04:29:47;56.67;;;7.32;;
18929;SDS011;43305;52.186;5.598;2023-11-19T04:32:15;54.55;;;7.07;;
18929;SDS011;43305;52.186;5.598;2023-11-19T04:34:42;60.63;;;7.40;;
18929;SDS011;43305;52.186;5.598;2023-11-19T04:37:09;56.03;;;6.82;;
18929;SDS011;43305;52.186;5.598;2023-11-19T04:39:36;44.90;;;5.97;;
18929;SDS011;43305;52.186;5.598;2023-11-19T04:42:06;54.25;;;6.93;;
18929;SDS011;43305;52.186;5.598;2023-11-19T04:44:33;50.85;;;6.70;;
18929;SDS011;43305;52.186;5.598;2023-11-19T04:47:01;57.47;;;7.05;;
18929;SDS011;43305;52.186;5.598;2023-11-19T04:49:28;57.75;;;6.45;;
18929;SDS011;43305;52.186;5.598;2023-11-19T04:51:55;44.65;;;6.03;;
18929;SDS011;43305;52.186;5.598;2023-11-19T04:54:22;56.05;;;7.30;;
18929;SDS011;43305;52.186;5.598;2023-11-19T04:56:49;64.82;;;8.43;;
18929;SDS011;43305;52.186;5.598;2023-11-19T04:59:19;56.50;;;6.78;;
18929;SDS011;43305;52.186;5.598;2023-11-19T05:01:47;50.83;;;6.72;;
18929;SDS011;43305;52.186;5.598;2023-11-19T05:04:15;51.05;;;7.07;;
18929;SDS011;43305;52.186;5.598;2023-11-19T05:06:43;53.90;;;6.65;;
18929;SDS011;43305;52.186;5.598;2023-11-19T05:09:10;66.15;;;7.20;;
18929;SDS011;43305;52.186;5.598;2023-11-19T05:11:38;56.15;;;7.35;;
18929;SDS011;43305;52.186;5.598;2023-11-19T05:14:05;51.15;;;7.30;;
18929;SDS011;43305;52.186;5.598;2023-11-19T05:16:32;48.83;;;6.82;;
18929;SDS011;43305;52.186;5.598;2023-11-19T05:18:59;59.92;;;6.68;;
18929;SDS011;43305;52.186;5.598;2023-11-19T05:21:27;51.40;;;6.47;;
18929;SDS011;43305;52.186;5.598;2023-11-19T05:23:54;52.50;;;6.30;;
18929;SDS011;43305;52.186;5.598;2023-11-19T05:26:22;51.83;;;6.95;;
18929;SDS011;43305;52.186;5.598;2023-11-19T05:28:50;54.75;;;6.45;;
18929;SDS011;43305;52.186;5.598;2023-11-19T05:31:17;53.90;;;6.65;;
18929;SDS011;43305;52.186;5.598;2023-11-19T05:33:44;47.72;;;6.53;;
18929;SDS011;43305;52.186;5.598;2023-11-19T05:36:11;51.50;;;6.45;;
18929;SDS011;43305;52.186;5.598;2023-11-19T05:38:40;48.20;;;5.90;;
18929;SDS011;43305;52.186;5.598;2023-11-19T05:41:07;50.60;;;6.25;;
18929;SDS011;43305;52.186;5.598;2023-11-19T05:43:33;42.55;;;6.53;;
18929;SDS011;43305;52.186;5.598;2023-11-19T05:46:00;46.45;;;6.47;;
18929;SDS011;43305;52.186;5.598;2023-11-19T05:48:28;53.90;;;6.70;;
18929;SDS011;43305;52.186;5.598;2023-11-19T05:50:55;46.60;;;5.88;;
18929;SDS011;43305;52.186;5.598;2023-11-19T05:53:22;57.38;;;6.88;;
18929;SDS011;43305;52.186;5.598;2023-11-19T05:55:51;47.47;;;6.55;;
18929;SDS011;43305;52.186;5.598;2023-11-19T05:58:23;53.35;;;6.68;;
18929;SDS011;43305;52.186;5.598;2023-11-19T06:00:53;52.50;;;6.43;;
18929;SDS011;43305;52.186;5.598;2023-11-19T06:03:23;45.72;;;6.97;;
18929;SDS011;43305;52.186;5.598;2023-11-19T06:05:53;56.88;;;6.72;;
18929;SDS011;43305;52.186;5.598;2023-11-19T06:08:23;52.25;;;6.28;;
18929;SDS011;43305;52.186;5.598;2023-11-19T06:10:53;55.03;;;6.47;;
18929;SDS011;43305;52.186;5.598;2023-11-19T06:13:23;53.33;;;6.88;;
18929;SDS011;43305;52.186;5.598;2023-11-19T06:15:50;60.72;;;7.50;;
18929;SDS011;43305;52.186;5.598;2023-11-19T06:18:17;52.28;;;6.43;;
18929;SDS011;43305;52.186;5.598;2023-11-19T06:20:46;64.90;;;7.60;;
18929;SDS011;43305;52.186;5.598;2023-11-19T06:23:12;54.30;;;6.95;;
18929;SDS011;43305;52.186;5.598;2023-11-19T06:25:39;46.00;;;6.57;;
18929;SDS011;43305;52.186;5.598;2023-11-19T06:28:07;61.10;;;7.30;;
18929;SDS011;43305;52.186;5.598;2023-11-19T06:30:34;62.13;;;6.85;;
18929;SDS011;43305;52.186;5.598;2023-11-19T06:33:01;57.83;;;6.93;;
18929;SDS011;43305;52.186;5.598;2023-11-19T06:35:28;64.15;;;7.57;;
18929;SDS011;43305;52.186;5.598;2023-11-19T06:38:01;54.35;;;6.88;;
18929;SDS011;43305;52.186;5.598;2023-11-19T06:40:28;49.78;;;6.65;;
18929;SDS011;43305;52.186;5.598;2023-11-19T06:42:55;55.35;;;6.38;;
18929;SDS011;43305;52.186;5.598;2023-11-19T06:45:23;59.42;;;6.75;;
18929;SDS011;43305;52.186;5.598;2023-11-19T06:47:53;39.72;;;6.22;;
18929;SDS011;43305;52.186;5.598;2023-11-19T06:50:26;52.20;;;6.68;;
18929;SDS011;43305;52.186;5.598;2023-11-19T06:52:53;56.03;;;7.20;;
18929;SDS011;43305;52.186;5.598;2023-11-19T06:55:21;50.38;;;6.45;;
18929;SDS011;43305;52.186;5.598;2023-11-19T06:57:48;50.25;;;6.32;;
18929;SDS011;43305;52.186;5.598;2023-11-19T07:00:15;55.63;;;6.32;;
18929;SDS011;43305;52.186;5.598;2023-11-19T07:02:44;52.60;;;6.00;;
18929;SDS011;43305;52.186;5.598;2023-11-19T07:05:11;51.75;;;6.90;;
18929;SDS011;43305;52.186;5.598;2023-11-19T07:07:38;53.75;;;6.28;;
18929;SDS011;43305;52.186;5.598;2023-11-19T07:10:05;50.78;;;6.88;;
18929;SDS011;43305;52.186;5.598;2023-11-19T07:12:34;53.97;;;7.55;;
18929;SDS011;43305;52.186;5.598;2023-11-19T07:15:02;49.75;;;6.07;;
18929;SDS011;43305;52.186;5.598;2023-11-19T07:17:29;43.90;;;6.00;;
18929;SDS011;43305;52.186;5.598;2023-11-19T07:19:57;51.97;;;6.35;;
18929;SDS011;43305;52.186;5.598;2023-11-19T07:22:25;56.30;;;7.40;;
18929;SDS011;43305;52.186;5.598;2023-11-19T07:24:54;56.90;;;6.90;;
18929;SDS011;43305;52.186;5.598;2023-11-19T07:27:24;59.13;;;7.53;;
18929;SDS011;43305;52.186;5.598;2023-11-19T07:29:54;54.70;;;7.35;;
18929;SDS011;43305;52.186;5.598;2023-11-19T07:32:21;60.28;;;7.80;;
18929;SDS011;43305;52.186;5.598;2023-11-19T07:34:48;56.55;;;6.53;;
18929;SDS011;43305;52.186;5.598;2023-11-19T07:37:16;54.30;;;6.35;;
18929;SDS011;43305;52.186;5.598;2023-11-19T07:39:43;62.15;;;7.13;;
18929;SDS011;43305;52.186;5.598;2023-11-19T07:42:10;58.67;;;7.38;;
18929;SDS011;43305;52.186;5.598;2023-11-19T07:44:37;53.10;;;7.05;;
18929;SDS011;43305;52.186;5.598;2023-11-19T07:47:04;57.25;;;7.28;;
18929;SDS011;43305;52.186;5.598;2023-11-19T07:49:31;63.78;;;7.70;;
18929;SDS011;43305;52.186;5.598;2023-11-19T07:51:58;58.15;;;6.65;;
18929;SDS011;43305;52.186;5.598;2023-11-19T07:54:26;51.08;;;6.20;;
18929;SDS011;43305;52.186;5.598;2023-11-19T07:56:53;53.08;;;6.75;;
18929;SDS011;43305;52.186;5.598;2023-11-19T07:59:20;50.15;;;6.10;;
18929;SDS011;43305;52.186;5.598;2023-11-19T08:01:49;60.20;;;7.78;;
18929;SDS011;43305;52.186;5.598;2023-11-19T08:04:15;49.63;;;6.60;;
18929;SDS011;43305;52.186;5.598;2023-11-19T08:06:42;54.45;;;7.20;;
18929;SDS011;43305;52.186;5.598;2023-11-19T08:09:10;52.55;;;5.50;;
18929;SDS011;43305;52.186;5.598;2023-11-19T08:11:40;48.88;;;5.88;;
18929;SDS011;43305;52.186;5.598;2023-11-19T08:14:07;48.10;;;5.75;;
18929;SDS011;43305;52.186;5.598;2023-11-19T08:16:34;42.50;;;6.03;;
18929;SDS011;43305;52.186;5.598;2023-11-19T08:19:02;55.60;;;6.90;;
18929;SDS011;43305;52.186;5.598;2023-11-19T08:21:29;53.40;;;6.18;;
18929;SDS011;43305;52.186;5.598;2023-11-19T08:23:56;54.17;;;6.45;;
18929;SDS011;43305;52.186;5.598;2023-11-19T08:26:23;45.42;;;5.93;;
18929;SDS011;43305;52.186;5.598;2023-11-19T08:28:54;52.80;;;7.10;;
18929;SDS011;43305;52.186;5.598;2023-11-19T08:31:24;46.55;;;6.13;;
18929;SDS011;43305;52.186;5.598;2023-11-19T08:33:51;45.47;;;6.10;;
18929;SDS011;43305;52.186;5.598;2023-11-19T08:36:20;66.28;;;6.90;;
18929;SDS011;43305;52.186;5.598;2023-11-19T08:38:48;55.92;;;6.47;;
18929;SDS011;43305;52.186;5.598;2023-11-19T08:41:17;60.70;;;7.57;;
18929;SDS011;43305;52.186;5.598;2023-11-19T08:43:44;46.47;;;6.40;;
18929;SDS011;43305;52.186;5.598;2023-11-19T08:46:13;57.75;;;6.53;;
18929;SDS011;43305;52.186;5.598;2023-11-19T08:48:39;52.03;;;6.65;;
18929;SDS011;43305;52.186;5.598;2023-11-19T08:51:06;59.72;;;8.05;;
18929;SDS011;43305;52.186;5.598;2023-11-19T08:53:33;41.00;;;6.22;;
18929;SDS011;43305;52.186;5.598;2023-11-19T08:56:00;52.50;;;6.40;;
18929;SDS011;43305;52.186;5.598;2023-11-19T08:58:27;52.05;;;6.07;;
18929;SDS011;43305;52.186;5.598;2023-11-19T09:00:55;49.08;;;5.72;;
18929;SDS011;43305;52.186;5.598;2023-11-19T09:03:26;43.95;;;6.18;;
18929;SDS011;43305;52.186;5.598;2023-11-19T09:05:55;50.63;;;6.88;;
18929;SDS011;43305;52.186;5.598;2023-11-19T09:08:21;47.47;;;6.05;;
18929;SDS011;43305;52.186;5.598;2023-11-19T09:10:51;50.20;;;6.28;;
18929;SDS011;43305;52.186;5.598;2023-11-19T09:13:18;42.70;;;5.90;;
18929;SDS011;43305;52.186;5.598;2023-11-19T09:15:45;53.65;;;6.15;;
18929;SDS011;43305;52.186;5.598;2023-11-19T09:18:11;44.67;;;6.28;;
18929;SDS011;43305;52.186;5.598;2023-11-19T09:20:40;44.13;;;6.18;;
18929;SDS011;43305;52.186;5.598;2023-11-19T09:23:07;48.22;;;6.28;;
18929;SDS011;43305;52.186;5.598;2023-11-19T09:25:34;41.88;;;5.70;;
18929;SDS011;43305;52.186;5.598;2023-11-19T09:28:00;43.28;;;5.78;;
18929;SDS011;43305;52.186;5.598;2023-11-19T09:30:27;46.00;;;5.57;;
18929;SDS011;43305;52.186;5.598;2023-11-19T09:32:54;42.30;;;5.78;;
18929;SDS011;43305;52.186;5.598;2023-11-19T09:35:21;49.55;;;6.07;;
18929;SDS011;43305;52.186;5.598;2023-11-19T09:37:51;42.53;;;5.80;;
18929;SDS011;43305;52.186;5.598;2023-11-19T09:40:18;40.60;;;6.25;;
18929;SDS011;43305;52.186;5.598;2023-11-19T09:42:45;49.30;;;5.95;;
18929;SDS011;43305;52.186;5.598;2023-11-19T09:45:14;45.05;;;6.10;;
18929;SDS011;43305;52.186;5.598;2023-11-19T09:47:42;47.95;;;6.10;;
18929;SDS011;43305;52.186;5.598;2023-11-19T09:50:10;50.42;;;6.10;;
18929;SDS011;43305;52.186;5.598;2023-11-19T09:52:42;45.47;;;6.03;;
18929;SDS011;43305;52.186;5.598;2023-11-19T09:55:11;43.72;;;6.38;;
18929;SDS011;43305;52.186;5.598;2023-11-19T09:57:38;47.53;;;6.75;;
18929;SDS011;43305;52.186;5.598;2023-11-19T10:00:07;39.95;;;5.28;;
18929;SDS011;43305;52.186;5.598;2023-11-19T10:02:35;49.20;;;5.65;;
18929;SDS011;43305;52.186;5.598;2023-11-19T10:05:04;37.08;;;5.53;;
18929;SDS011;43305;52.186;5.598;2023-11-19T10:07:33;35.20;;;5.18;;
18929;SDS011;43305;52.186;5.598;2023-11-19T10:10:00;42.05;;;5.93;;
18929;SDS011;43305;52.186;5.598;2023-11-19T10:12:30;41.97;;;5.90;;
18929;SDS011;43305;52.186;5.598;2023-11-19T10:14:57;40.33;;;6.03;;
18929;SDS011;43305;52.186;5.598;2023-11-19T10:17:27;41.05;;;5.18;;
18929;SDS011;43305;52.186;5.598;2023-11-19T10:19:55;37.30;;;5.90;;
18929;SDS011;43305;52.186;5.598;2023-11-19T10:22:22;41.78;;;5.93;;
18929;SDS011;43305;52.186;5.598;2023-11-19T10:24:56;45.08;;;5.45;;
18929;SDS011;43305;52.186;5.598;2023-11-19T10:27:24;48.88;;;6.63;;
18929;SDS011;43305;52.186;5.598;2023-11-19T10:29:53;40.85;;;5.97;;
18929;SDS011;43305;52.186;5.598;2023-11-19T10:32:20;46.25;;;6.50;;
18929;SDS011;43305;52.186;5.598;2023-11-19T10:34:47;43.65;;;5.88;;
18929;SDS011;43305;52.186;5.598;2023-11-19T10:37:27;46.08;;;6.10;;
18929;SDS011;43305;52.186;5.598;2023-11-19T10:39:56;41.08;;;6.30;;
18929;SDS011;43305;52.186;5.598;2023-11-19T10:42:27;39.40;;;6.07;;
18929;SDS011;43305;52.186;5.598;2023-11-19T10:44:55;40.47;;;5.80;;
18929;SDS011;43305;52.186;5.598;2023-11-19T10:47:22;44.15;;;6.53;;
18929;SDS011;43305;52.186;5.598;2023-11-19T10:49:51;39.47;;;5.57;;
18929;SDS011;43305;52.186;5.598;2023-11-19T10:52:18;36.85;;;5.25;;
18929;SDS011;43305;52.186;5.598;2023-11-19T10:54:47;35.22;;;5.15;;
18929;SDS011;43305;52.186;5.598;2023-11-19T10:57:18;40.10;;;5.88;;
18929;SDS011;43305;52.186;5.598;2023-11-19T10:59:48;35.65;;;5.65;;
18929;SDS011;43305;52.186;5.598;2023-11-19T11:02:23;39.58;;;5.07;;
18929;SDS011;43305;52.186;5.598;2023-11-19T11:04:52;43.78;;;5.80;;
18929;SDS011;43305;52.186;5.598;2023-11-19T11:07:23;38.08;;;5.47;;
18929;SDS011;43305;52.186;5.598;2023-11-19T11:09:56;41.75;;;5.78;;
18929;SDS011;43305;52.186;5.598;2023-11-19T11:12:24;44.92;;;5.65;;
18929;SDS011;43305;52.186;5.598;2023-11-19T11:14:52;38.50;;;5.90;;
18929;SDS011;43305;52.186;5.598;2023-11-19T11:17:24;39.03;;;5.88;;
18929;SDS011;43305;52.186;5.598;2023-11-19T11:19:54;36.63;;;4.88;;
18929;SDS011;43305;52.186;5.598;2023-11-19T11:22:21;40.22;;;5.22;;
18929;SDS011;43305;52.186;5.598;2023-11-19T11:25:02;42.78;;;5.10;;
18929;SDS011;43305;52.186;5.598;2023-11-19T11:30:44;36.17;;;5.03;;
18929;SDS011;43305;52.186;5.598;2023-11-19T11:33:26;35.13;;;5.13;;
18929;SDS011;43305;52.186;5.598;2023-11-19T11:36:05;33.05;;;4.85;;
18929;SDS011;43305;52.186;5.598;2023-11-19T11:38:40;37.00;;;5.65;;
18929;SDS011;43305;52.186;5.598;2023-11-19T11:41:17;36.72;;;6.38;;
18929;SDS011;43305;52.186;5.598;2023-11-19T11:43:46;46.95;;;5.47;;
18929;SDS011;43305;52.186;5.598;2023-11-19T11:49:28;30.52;;;4.97;;
18929;SDS011;43305;52.186;5.598;2023-11-19T11:52:00;31.73;;;5.30;;
18929;SDS011;43305;52.186;5.598;2023-11-19T11:54:28;34.92;;;5.03;;
18929;SDS011;43305;52.186;5.598;2023-11-19T11:57:08;34.65;;;5.18;;
18929;SDS011;43305;52.186;5.598;2023-11-19T11:59:37;33.45;;;5.30;;
18929;SDS011;43305;52.186;5.598;2023-11-19T12:02:11;36.75;;;5.47;;
18929;SDS011;43305;52.186;5.598;2023-11-19T12:04:41;37.72;;;5.55;;
18929;SDS011;43305;52.186;5.598;2023-11-19T12:07:08;41.08;;;6.55;;
18929;SDS011;43305;52.186;5.598;2023-11-19T12:09:40;37.28;;;6.13;;
18929;SDS011;43305;52.186;5.598;2023-11-19T12:12:11;47.55;;;6.28;;
18929;SDS011;43305;52.186;5.598;2023-11-19T12:14:59;35.55;;;5.38;;
18929;SDS011;43305;52.186;5.598;2023-11-19T12:17:41;33.92;;;5.28;;
18929;SDS011;43305;52.186;5.598;2023-11-19T12:20:11;26.70;;;5.00;;
18929;SDS011;43305;52.186;5.598;2023-11-19T12:22:38;36.05;;;4.80;;
18929;SDS011;43305;52.186;5.598;2023-11-19T12:25:06;30.63;;;5.20;;
18929;SDS011;43305;52.186;5.598;2023-11-19T12:27:34;35.60;;;4.53;;
18929;SDS011;43305;52.186;5.598;2023-11-19T12:30:02;34.10;;;4.93;;
18929;SDS011;43305;52.186;5.598;2023-11-19T12:32:38;36.65;;;5.35;;
18929;SDS011;43305;52.186;5.598;2023-11-19T12:35:06;33.75;;;4.93;;
18929;SDS011;43305;52.186;5.598;2023-11-19T12:37:40;30.17;;;4.57;;
18929;SDS011;43305;52.186;5.598;2023-11-19T12:40:14;29.73;;;4.55;;
18929;SDS011;43305;52.186;5.598;2023-11-19T12:42:42;32.35;;;4.78;;
18929;SDS011;43305;52.186;5.598;2023-11-19T12:45:09;28.98;;;4.97;;
18929;SDS011;43305;52.186;5.598;2023-11-19T12:47:37;32.33;;;4.60;;
18929;SDS011;43305;52.186;5.598;2023-11-19T12:50:04;35.90;;;4.88;;
18929;SDS011;43305;52.186;5.598;2023-11-19T12:52:33;23.63;;;4.15;;
18929;SDS011;43305;52.186;5.598;2023-11-19T12:55:01;26.85;;;4.00;;
18929;SDS011;43305;52.186;5.598;2023-11-19T12:57:38;28.70;;;4.53;;
18929;SDS011;43305;52.186;5.598;2023-11-19T13:00:06;38.97;;;4.65;;
18929;SDS011;43305;52.186;5.598;2023-11-19T13:02:44;25.42;;;3.85;;
18929;SDS011;43305;52.186;5.598;2023-11-19T13:05:22;31.35;;;4.43;;
18929;SDS011;43305;52.186;5.598;2023-11-19T13:07:59;30.00;;;4.50;;
18929;SDS011;43305;52.186;5.598;2023-11-19T13:10:51;34.78;;;4.20;;
18929;SDS011;43305;52.186;5.598;2023-11-19T13:13:19;37.13;;;4.55;;
18929;SDS011;43305;52.186;5.598;2023-11-19T13:15:46;37.35;;;5.32;;
18929;SDS011;43305;52.186;5.598;2023-11-19T13:18:15;26.67;;;4.38;;
18929;SDS011;43305;52.186;5.598;2023-11-19T13:20:42;24.63;;;4.65;;
18929;SDS011;43305;52.186;5.598;2023-11-19T13:23:09;31.90;;;4.75;;
18929;SDS011;43305;52.186;5.598;2023-11-19T13:25:36;30.77;;;5.22;;
18929;SDS011;43305;52.186;5.598;2023-11-19T13:28:07;33.30;;;5.47;;
18929;SDS011;43305;52.186;5.598;2023-11-19T13:30:35;33.03;;;4.93;;
18929;SDS011;43305;52.186;5.598;2023-11-19T13:33:01;31.63;;;5.25;;
18929;SDS011;43305;52.186;5.598;2023-11-19T13:35:31;39.17;;;5.55;;
18929;SDS011;43305;52.186;5.598;2023-11-19T13:37:58;31.40;;;4.68;;
18929;SDS011;43305;52.186;5.598;2023-11-19T13:40:25;41.30;;;4.88;;
18929;SDS011;43305;52.186;5.598;2023-11-19T13:42:51;38.72;;;5.13;;
18929;SDS011;43305;52.186;5.598;2023-11-19T13:45:22;36.63;;;4.95;;
18929;SDS011;43305;52.186;5.598;2023-11-19T13:47:49;32.92;;;6.18;;
18929;SDS011;43305;52.186;5.598;2023-11-19T13:50:16;41.03;;;7.07;;
18929;SDS011;43305;52.186;5.598;2023-11-19T13:52:43;34.65;;;5.88;;
18929;SDS011;43305;52.186;5.598;2023-11-19T13:55:12;35.42;;;6.07;;
18929;SDS011;43305;52.186;5.598;2023-11-19T13:57:39;37.30;;;4.88;;
18929;SDS011;43305;52.186;5.598;2023-11-19T14:00:08;36.00;;;5.13;;
18929;SDS011;43305;52.186;5.598;2023-11-19T14:02:39;34.92;;;4.70;;
18929;SDS011;43305;52.186;5.598;2023-11-19T14:05:06;40.78;;;5.75;;
18929;SDS011;43305;52.186;5.598;2023-11-19T14:07:33;35.15;;;5.38;;
18929;SDS011;43305;52.186;5.598;2023-11-19T14:10:00;33.75;;;4.95;;
18929;SDS011;43305;52.186;5.598;2023-11-19T14:12:27;37.25;;;5.38;;
18929;SDS011;43305;52.186;5.598;2023-11-19T14:14:54;37.58;;;5.30;;
18929;SDS011;43305;52.186;5.598;2023-11-19T14:17:21;38.75;;;5.43;;
18929;SDS011;43305;52.186;5.598;2023-11-19T14:19:49;35.33;;;5.03;;
18929;SDS011;43305;52.186;5.598;2023-11-19T14:22:16;32.28;;;5.00;;
18929;SDS011;43305;52.186;5.598;2023-11-19T14:24:43;35.22;;;4.63;;
18929;SDS011;43305;52.186;5.598;2023-11-19T14:27:09;34.17;;;4.22;;
18929;SDS011;43305;52.186;5.598;2023-11-19T14:29:36;29.00;;;4.18;;
18929;SDS011;43305;52.186;5.598;2023-11-19T14:32:04;31.00;;;4.63;;
18929;SDS011;43305;52.186;5.598;2023-11-19T14:34:31;25.92;;;4.60;;
18929;SDS011;43305;52.186;5.598;2023-11-19T14:37:00;35.20;;;5.20;;
18929;SDS011;43305;52.186;5.598;2023-11-19T14:39:27;26.65;;;4.32;;
18929;SDS011;43305;52.186;5.598;2023-11-19T14:41:56;34.83;;;4.95;;
18929;SDS011;43305;52.186;5.598;2023-11-19T14:44:26;31.73;;;4.80;;
18929;SDS011;43305;52.186;5.598;2023-11-19T14:46:54;36.95;;;5.13;;